Sutter Hill, California
Current Conditions -  °F | °C
As of 8:15 PM on Friday 19 Dec 2014 (Local Time) from KPVF Reporting Station
Overcast Overcast  
Wind Chill: 42°   Ceiling: 1900
Heat Index: 46°   Visibility: 10mi
Dew Point: 45°   Wind: 9mph
Humidity: 93%   Direction: 140°SE
Pressure: 30.14"   Gusts: NA
Location:  38.4267°N, 120.781°W
Report Text: KPVF 200415Z AUTO 14008KT 10SM BKN019 OVC026 08/07 A3014 RMK AO1
Loading
Personal Weather Stations






























Interactive Weather Map New forecast layout! Learn more

10-Day Weather Forecast

Advertisements
Track Severe Weather on mobile